Time;durP1;ratioP1;P1;durP2;ratioP2;P2;SDS_P1;SDS_P2;PMS_P1;PMS_P2;Temp;Humidity;BMP_temperature;BMP_pressure;BME280_temperature;BME280_humidity;BME280_pressure;Samples;Min_cycle;Max_cycle;Signal;HPM_P1;HPM_P2
2023/07/29 00:01:33;;;;;;;6.80;4.40;;;512.90;2380.80;;;;;;5049178;28;20552;-59
2023/07/29 00:03:59;;;;;;;5.50;4.35;;;512.90;2380.80;;;;;;5048889;28;20120;-59
2023/07/29 00:06:25;;;;;;;7.93;4.40;;;512.90;2380.80;;;;;;5049073;28;20117;-60
2023/07/29 00:08:50;;;;;;;8.75;4.32;;;512.90;2380.80;;;;;;5049093;28;20025;-59
2023/07/29 00:11:16;;;;;;;7.30;4.82;;;512.90;2380.80;;;;;;5049343;28;20055;-59
2023/07/29 00:13:42;;;;;;;6.43;4.85;;;537.60;2406.40;;;;;;5048299;28;20532;-60
2023/07/29 00:16:07;;;;;;;6.93;4.45;;;537.60;2406.40;;;;;;5048454;28;20030;-59
2023/07/29 00:18:33;;;;;;;7.00;4.40;;;537.60;2406.40;;;;;;5048221;28;20128;-59
2023/07/29 00:20:59;;;;;;;5.53;4.40;;;512.90;2380.80;;;;;;5047441;28;20021;-67
2023/07/29 00:23:25;;;;;;;4.40;3.95;;;512.70;2380.80;;;;;;5048008;28;20049;-59
2023/07/29 00:25:50;;;;;;;5.95;4.63;;;512.60;2380.80;;;;;;5048419;28;20418;-60
2023/07/29 00:28:16;;;;;;;7.45;4.60;;;512.60;2380.80;;;;;;5048261;28;20614;-60
2023/07/29 00:30:42;;;;;;;7.72;4.82;;;512.60;2380.80;;;;;;5048336;28;20029;-60
2023/07/29 00:33:08;;;;;;;6.25;4.82;;;512.70;2380.80;;;;;;5048654;28;20094;-60
2023/07/29 00:35:34;;;;;;;6.72;4.28;;;512.70;2380.80;;;;;;5049147;28;20028;-59
2023/07/29 00:38:00;;;;;;;6.78;4.43;;;512.70;2380.80;;;;;;5048789;28;20036;-59
2023/07/29 00:40:28;;;;;;;5.93;4.85;;;512.50;2380.80;;;;;;5046507;28;20051;-59
2023/07/29 00:42:53;;;;;;;7.45;5.32;;;512.50;2380.80;;;;;;5048525;28;20037;-60
2023/07/29 00:45:19;;;;;;;6.80;4.43;;;512.40;2380.80;;;;;;5049126;28;20028;-60
2023/07/29 00:47:45;;;;;;;6.15;4.63;;;512.40;2380.80;;;;;;5048896;28;20352;-65
2023/07/29 00:50:12;;;;;;;5.93;4.65;;;512.50;2380.80;;;;;;5048270;28;20386;-60
2023/07/29 00:52:38;;;;;;;7.18;5.07;;;512.50;2380.80;;;;;;5048701;28;20399;-60
2023/07/29 00:55:05;;;;;;;5.38;4.25;;;512.50;2380.80;;;;;;5048487;28;20033;-62
2023/07/29 00:57:32;;;;;;;7.85;5.82;;;512.50;2380.80;;;;;;5048711;28;20033;-59
2023/07/29 00:59:58;;;;;;;7.80;4.80;;;512.60;2380.80;;;;;;5048654;28;20374;-66
2023/07/29 01:02:24;;;;;;;5.57;4.65;;;512.60;2380.80;;;;;;5048223;28;20463;-60
2023/07/29 01:04:57;;;;;;;10.40;4.43;;;512.70;2380.80;;;;;;5048488;28;20083;-59
2023/07/29 01:08:00;;;;;;;6.78;4.30;;;512.70;2380.80;;;;;;5048353;28;20021;-60
2023/07/29 01:10:57;;;;;;;7.70;4.60;;;512.60;2380.80;;;;;;5039966;28;20025;-60
2023/07/29 01:13:37;;;;;;;8.60;4.82;;;512.60;2380.80;;;;;;5037361;28;20036;-60
2023/07/29 01:16:13;;;;;;;7.32;4.45;;;512.50;2380.80;;;;;;5048591;28;20407;-61
2023/07/29 01:18:40;;;;;;;7.32;4.20;;;512.50;2380.80;;;;;;5048857;28;20109;-59
2023/07/29 01:21:09;;;;;;;6.07;4.63;;;512.50;2380.80;;;;;;5047920;28;20025;-60
2023/07/29 01:23:35;;;;;;;6.97;4.85;;;512.30;2380.80;;;;;;5049006;28;20154;-60
2023/07/29 01:26:02;;;;;;;7.03;5.05;;;512.20;2380.80;;;;;;5052092;28;20451;-59
2023/07/29 01:28:28;;;;;;;7.15;4.55;;;512.20;2380.80;;;;;;5051856;28;20135;-59
2023/07/29 01:31:05;;;;;;;6.28;4.80;;;512.20;2380.80;;;;;;5051797;28;20025;-60
2023/07/29 01:33:38;;;;;;;5.15;4.65;;;512.10;2380.80;;;;;;5051890;28;20475;-60
2023/07/29 01:36:11;;;;;;;8.73;5.03;;;512.00;2380.80;;;;;;5051501;28;20664;-60
2023/07/29 01:38:40;;;;;;;6.80;4.43;;;487.30;2380.80;;;;;;5051874;28;20071;-59
2023/07/29 01:41:08;;;;;;;6.85;5.28;;;487.30;2380.80;;;;;;5051770;28;20021;-59
2023/07/29 01:43:41;;;;;;;9.00;6.00;;;487.30;2380.80;;;;;;5051264;28;20120;-59
2023/07/29 01:46:07;;;;;;;6.53;4.70;;;487.30;2380.80;;;;;;5051509;28;20475;-59
2023/07/29 01:48:33;;;;;;;9.30;4.72;;;487.20;2380.80;;;;;;5051539;28;20037;-61
2023/07/29 01:50:58;;;;;;;6.28;4.95;;;487.10;2380.80;;;;;;5051160;28;20017;-59
2023/07/29 01:53:24;;;;;;;7.38;4.65;;;487.10;2380.80;;;;;;5051304;28;20044;-59
2023/07/29 01:55:50;;;;;;;6.18;5.03;;;487.20;2380.80;;;;;;5051711;28;20044;-59
2023/07/29 01:58:15;;;;;;;6.43;4.18;;;487.30;2380.80;;;;;;5051360;28;20506;-59
2023/07/29 02:00:41;;;;;;;9.40;4.90;;;487.30;2380.80;;;;;;5051437;28;20025;-59
2023/07/29 02:03:07;;;;;;;9.00;4.80;;;512.00;2380.80;;;;;;5051100;28;20502;-60
2023/07/29 02:05:32;;;;;;;6.15;4.95;;;512.00;2380.80;;;;;;5051303;28;20134;-59
2023/07/29 02:07:58;;;;;;;4.72;4.00;;;512.00;2380.80;;;;;;5051138;28;20029;-59
2023/07/29 02:10:24;;;;;;;6.03;4.88;;;487.30;2380.80;;;;;;5050857;28;20025;-59
2023/07/29 02:12:49;;;;;;;7.43;4.70;;;487.30;2380.80;;;;;;5051339;28;20067;-59
2023/07/29 02:15:15;;;;;;;6.07;4.47;;;487.30;2380.80;;;;;;5051018;28;20056;-59
2023/07/29 02:17:42;;;;;;;6.30;4.55;;;487.30;2380.80;;;;;;5051212;28;20479;-59
2023/07/29 02:20:08;;;;;;;7.63;5.72;;;487.10;2380.80;;;;;;5051253;28;20032;-60
2023/07/29 02:22:34;;;;;;;6.20;5.18;;;487.10;2380.80;;;;;;5050490;28;20037;-60
2023/07/29 02:25:00;;;;;;;5.72;4.72;;;487.10;2380.80;;;;;;5050917;28;20020;-58
2023/07/29 02:27:27;;;;;;;12.77;5.20;;;487.00;2380.80;;;;;;5050830;28;20037;-63
2023/07/29 02:29:53;;;;;;;7.03;4.55;;;487.10;2380.80;;;;;;5050659;28;20123;-63
2023/07/29 02:32:19;;;;;;;8.70;4.78;;;487.10;2380.80;;;;;;5051039;28;20029;-59
2023/07/29 02:34:45;;;;;;;6.65;5.03;;;487.10;2380.80;;;;;;5050073;28;20029;-59
2023/07/29 02:37:11;;;;;;;7.05;5.25;;;487.10;2380.80;;;;;;5050769;28;20098;-60
2023/07/29 02:39:37;;;;;;;8.68;4.75;;;487.10;2380.80;;;;;;5050545;28;20033;-60
2023/07/29 02:42:03;;;;;;;5.90;4.97;;;487.10;2380.80;;;;;;5050475;28;20021;-59
2023/07/29 02:44:29;;;;;;;5.97;4.80;;;487.00;2380.80;;;;;;5050684;28;20029;-59
2023/07/29 02:46:55;;;;;;;6.95;4.47;;;487.00;2380.80;;;;;;5050476;28;20498;-60
2023/07/29 02:49:22;;;;;;;6.25;4.95;;;487.00;2380.80;;;;;;5050364;28;20448;-59
2023/07/29 02:51:47;;;;;;;6.80;5.15;;;487.00;2380.80;;;;;;5050374;28;20020;-60
2023/07/29 02:54:14;;;;;;;6.78;4.82;;;487.00;2380.80;;;;;;5049973;28;20052;-60
2023/07/29 02:56:40;;;;;;;8.63;5.55;;;487.00;2380.80;;;;;;5050506;28;20025;-60
2023/07/29 02:59:06;;;;;;;5.93;4.93;;;487.00;2380.80;;;;;;5050059;28;20463;-59
2023/07/29 03:01:31;;;;;;;6.95;4.90;;;487.00;2380.80;;;;;;5049913;28;20116;-60
2023/07/29 03:03:57;;;;;;;7.75;4.65;;;487.00;2380.80;;;;;;5049454;28;20069;-59
2023/07/29 03:06:23;;;;;;;6.97;5.47;;;486.90;2380.80;;;;;;5050225;28;20024;-59
2023/07/29 03:08:49;;;;;;;9.20;5.28;;;486.90;2380.80;;;;;;5050530;28;20029;-60
2023/07/29 03:11:16;;;;;;;7.93;5.53;;;486.90;2380.80;;;;;;5049982;28;20426;-60
2023/07/29 03:13:42;;;;;;;6.70;5.10;;;486.90;2380.80;;;;;;5049995;28;20055;-59
2023/07/29 03:16:15;;;;;;;6.03;5.03;;;486.90;2380.80;;;;;;5050239;28;20033;-59
2023/07/29 03:18:42;;;;;;;6.15;4.75;;;486.80;2380.80;;;;;;5049824;28;20495;-59
2023/07/29 03:21:09;;;;;;;6.53;4.65;;;486.80;2380.80;;;;;;5050041;28;20125;-59
2023/07/29 03:23:35;;;;;;;10.93;4.88;;;486.80;2380.80;;;;;;5049486;28;20064;-59
2023/07/29 03:26:04;;;;;;;5.55;4.03;;;486.80;2380.80;;;;;;5049530;28;20116;-59
2023/07/29 03:28:32;;;;;;;6.57;5.05;;;486.80;2380.80;;;;;;5049589;28;20079;-59
2023/07/29 03:30:58;;;;;;;10.15;5.50;;;486.90;2380.80;;;;;;5049441;28;20025;-59
2023/07/29 03:33:25;;;;;;;7.85;5.22;;;486.90;2380.80;;;;;;5049297;28;20399;-60
2023/07/29 03:35:51;;;;;;;5.35;4.38;;;486.80;2380.80;;;;;;5049570;28;20029;-61
2023/07/29 03:38:16;;;;;;;6.28;4.75;;;486.80;2380.80;;;;;;5049523;28;20021;-59
2023/07/29 03:40:42;;;;;;;8.13;5.38;;;486.90;2380.80;;;;;;5049492;28;20363;-60
2023/07/29 03:43:08;;;;;;;8.98;4.45;;;486.90;2380.80;;;;;;5049675;28;20029;-59
2023/07/29 03:45:35;;;;;;;6.03;4.45;;;487.00;2380.80;;;;;;5049580;28;20375;-59
2023/07/29 03:48:01;;;;;;;6.03;5.03;;;487.00;2380.80;;;;;;5049224;28;20021;-60
2023/07/29 03:50:28;;;;;;;5.60;4.45;;;487.10;2380.80;;;;;;5049594;28;20021;-59
2023/07/29 03:52:53;;;;;;;6.85;4.72;;;487.20;2380.80;;;;;;5048900;28;20029;-59
2023/07/29 03:55:19;;;;;;;5.63;4.75;;;487.30;2380.80;;;;;;5049419;28;20025;-59
2023/07/29 03:57:44;;;;;;;6.85;5.22;;;487.30;2380.80;;;;;;5049424;28;20025;-59
2023/07/29 04:00:10;;;;;;;6.60;5.10;;;487.30;2380.80;;;;;;5049364;28;20025;-59
2023/07/29 04:02:37;;;;;;;5.93;4.78;;;512.00;2380.80;;;;;;5048954;28;20025;-62
2023/07/29 04:05:03;;;;;;;8.13;5.03;;;512.10;2380.80;;;;;;5048798;28;20458;-59
2023/07/29 04:07:30;;;;;;;6.97;5.57;;;512.20;2380.80;;;;;;5049519;28;20594;-65
2023/07/29 04:09:56;;;;;;;5.80;4.10;;;512.20;2380.80;;;;;;5048531;28;20025;-59
2023/07/29 04:12:22;;;;;;;7.40;4.45;;;512.40;2380.80;;;;;;5049191;28;20111;-62
2023/07/29 04:14:48;;;;;;;6.07;5.07;;;512.60;2380.80;;;;;;5049182;28;20370;-59
2023/07/29 04:17:14;;;;;;;9.65;5.40;;;512.80;2380.80;;;;;;5049138;28;20025;-60
2023/07/29 04:19:40;;;;;;;6.28;4.53;;;512.90;2380.80;;;;;;5048570;28;20107;-60
2023/07/29 04:22:05;;;;;;;7.07;4.80;;;537.60;2406.40;;;;;;5048328;28;20025;-61
2023/07/29 04:24:31;;;;;;;7.57;4.80;;;537.70;2406.40;;;;;;5048978;28;20119;-65
2023/07/29 04:26:57;;;;;;;9.60;5.03;;;537.90;2406.40;;;;;;5048714;28;20026;-59
2023/07/29 04:29:22;;;;;;;10.00;4.97;;;538.00;2406.40;;;;;;5048313;28;20057;-59
2023/07/29 04:31:49;;;;;;;5.72;4.20;;;538.00;2406.40;;;;;;5049217;28;20029;-59
2023/07/29 04:34:15;;;;;;;5.30;4.80;;;538.00;2406.40;;;;;;5048707;28;20033;-65
2023/07/29 04:36:41;;;;;;;7.55;4.60;;;538.00;2406.40;;;;;;5048873;28;20036;-67
2023/07/29 04:39:07;;;;;;;10.00;4.45;;;538.20;2406.40;;;;;;5048781;28;20025;-59
2023/07/29 04:41:33;;;;;;;5.80;4.45;;;538.30;2406.40;;;;;;5048313;28;20443;-60
2023/07/29 04:43:59;;;;;;;6.60;4.88;;;538.40;2406.40;;;;;;5048561;28;20033;-59
2023/07/29 04:46:24;;;;;;;7.00;5.10;;;538.50;2406.40;;;;;;5048864;28;20021;-59
2023/07/29 04:48:50;;;;;;;8.85;4.90;;;563.20;2432.00;;;;;;5048974;28;20025;-61
2023/07/29 04:51:16;;;;;;;10.50;5.32;;;563.50;2432.00;;;;;;5048743;28;20052;-60
2023/07/29 04:53:41;;;;;;;7.70;4.88;;;563.60;2432.00;;;;;;5048746;28;20493;-61
2023/07/29 04:56:07;;;;;;;5.53;4.60;;;564.00;2432.00;;;;;;5048650;28;20088;-59
2023/07/29 04:58:35;;;;;;;6.53;4.97;;;640.40;2432.00;;;;;;5049804;28;20422;-59
2023/07/29 05:01:02;;;;;;;6.82;5.35;;;743.00;2176.00;;;;;;5052499;28;20013;-59
2023/07/29 05:03:28;;;;;;;10.70;5.90;;;819.20;1894.40;;;;;;5052199;28;20536;-65
2023/07/29 05:05:55;;;;;;;5.75;4.85;;;870.40;1715.20;;;;;;5051449;28;20029;-64
2023/07/29 05:08:21;;;;;;;7.28;5.75;;;871.30;1612.80;;;;;;5052185;28;20025;-62
2023/07/29 05:10:51;;;;;;;9.50;5.88;;;922.00;1561.60;;;;;;5052185;28;20013;-64
2023/07/29 05:13:17;;;;;;;5.75;5.18;;;948.00;1459.20;;;;;;5052117;28;20051;-62
2023/07/29 05:15:43;;;;;;;5.72;5.20;;;948.00;1433.60;;;;;;5052044;28;20106;-63
2023/07/29 05:18:09;;;;;;;6.13;5.22;;;922.00;1510.40;;;;;;5052307;28;20541;-64
2023/07/29 05:20:34;;;;;;;7.93;5.93;;;896.00;1536.00;;;;;;5051742;28;20021;-59
2023/07/29 05:23:00;;;;;;;7.78;5.65;;;947.60;1433.60;;;;;;5051679;28;20056;-59
2023/07/29 05:25:26;;;;;;;9.05;5.70;;;973.60;1382.40;;;;;;5051674;28;20098;-59
2023/07/29 05:27:52;;;;;;;6.78;6.07;;;999.20;1356.80;;;;;;5051871;28;20033;-59
2023/07/29 05:30:18;;;;;;;9.30;5.90;;;1024.20;1331.20;;;;;;5051767;28;20033;-58
2023/07/29 05:32:43;;;;;;;7.53;6.00;;;1050.10;1280.00;;;;;;5051809;28;20122;-60
2023/07/29 05:35:10;;;;;;;6.85;5.82;;;1050.00;1280.00;;;;;;5052086;28;20013;-60
2023/07/29 05:37:39;;;;;;;6.88;6.28;;;1050.30;1280.00;;;;;;5051381;28;20037;-60
2023/07/29 05:40:06;;;;;;;6.28;5.68;;;1075.90;1203.20;;;;;;5051792;28;20510;-59
2023/07/29 05:42:33;;;;;;;9.30;5.88;;;1100.80;1228.80;;;;;;5051855;28;20170;-60
2023/07/29 05:44:58;;;;;;;7.30;6.50;;;1101.00;1203.20;;;;;;5051993;28;20108;-59
2023/07/29 05:47:24;;;;;;;8.60;6.80;;;1126.50;1177.60;;;;;;5051138;28;20155;-65
2023/07/29 05:49:50;;;;;;;9.05;6.97;;;1152.10;1126.40;;;;;;5051655;28;20021;-59
2023/07/29 05:52:15;;;;;;;7.30;5.53;;;1152.70;1100.80;;;;;;5051200;28;20639;-60
2023/07/29 05:54:42;;;;;;;7.40;6.80;;;1126.80;1152.00;;;;;;5051311;28;20087;-60
2023/07/29 05:57:09;;;;;;;7.72;7.03;;;1127.10;1152.00;;;;;;5052112;28;20057;-60
2023/07/29 05:59:35;;;;;;;12.30;5.60;;;1127.30;1152.00;;;;;;5051361;28;20028;-60
2023/07/29 06:02:01;;;;;;;7.43;6.63;;;1100.80;1203.20;;;;;;5051505;28;20028;-60
2023/07/29 06:04:27;;;;;;;5.93;5.20;;;1050.40;1203.20;;;;;;5050813;28;20029;-60
2023/07/29 06:06:52;;;;;;;6.93;5.60;;;999.30;1305.60;;;;;;5051522;28;20025;-60
2023/07/29 06:09:18;;;;;;;7.20;6.57;;;998.40;1331.20;;;;;;5051002;28;20433;-59
2023/07/29 06:11:44;;;;;;;9.35;6.70;;;998.80;1305.60;;;;;;5049957;28;20429;-60
2023/07/29 06:14:09;;;;;;;6.68;5.43;;;947.70;1356.80;;;;;;5051025;28;20025;-62
2023/07/29 06:16:35;;;;;;;6.82;5.70;;;947.40;1382.40;;;;;;5050983;28;20025;-60
2023/07/29 06:19:01;;;;;;;6.80;5.70;;;922.40;1433.60;;;;;;5051101;28;20525;-63
2023/07/29 06:21:26;;;;;;;6.70;5.72;;;921.60;1459.20;;;;;;5050666;28;20021;-59
2023/07/29 06:23:52;;;;;;;6.47;5.60;;;896.00;1484.80;;;;;;5050805;28;20080;-59
2023/07/29 06:26:18;;;;;;;7.25;5.85;;;896.20;1484.80;;;;;;5051037;28;20044;-58
2023/07/29 06:28:44;;;;;;;6.72;5.63;;;870.90;1536.00;;;;;;5050419;28;20053;-60
2023/07/29 06:31:10;;;;;;;7.65;5.55;;;845.40;1612.80;;;;;;5050738;28;20017;-59
2023/07/29 06:33:35;;;;;;;9.27;6.30;;;819.70;1638.40;;;;;;5050656;28;20029;-59
2023/07/29 06:36:01;;;;;;;7.95;5.32;;;794.50;1689.60;;;;;;5050384;28;20025;-59
2023/07/29 06:38:27;;;;;;;11.00;5.50;;;793.90;1740.80;;;;;;5050497;28;20090;-59
2023/07/29 06:40:53;;;;;;;6.82;6.22;;;794.20;1715.20;;;;;;5050793;28;20017;-59
2023/07/29 06:43:18;;;;;;;7.40;6.70;;;844.90;1664.00;;;;;;5050714;28;20037;-59
2023/07/29 06:45:44;;;;;;;8.90;7.88;;;921.60;1510.40;;;;;;5050205;28;20409;-60
2023/07/29 06:48:10;;;;;;;7.90;6.05;;;922.40;1484.80;;;;;;5050652;28;20029;-60
2023/07/29 06:50:35;;;;;;;6.90;6.28;;;973.20;1382.40;;;;;;5048955;28;20047;-60
2023/07/29 06:53:01;;;;;;;11.70;7.43;;;947.30;1433.60;;;;;;5050220;28;20037;-61
2023/07/29 06:55:27;;;;;;;8.40;7.60;;;998.70;1382.40;;;;;;5050223;28;20383;-60
2023/07/29 06:57:52;;;;;;;10.30;7.75;;;1075.50;1254.40;;;;;;5050698;28;20112;-60
2023/07/29 07:00:18;;;;;;;8.20;7.47;;;1126.50;1228.80;;;;;;5050388;28;20029;-62
2023/07/29 07:02:44;;;;;;;6.80;6.10;;;1178.10;1100.80;;;;;;5049898;28;20052;-60
2023/07/29 07:05:09;;;;;;;8.18;7.22;;;1152.10;1152.00;;;;;;5050242;28;20104;-66
2023/07/29 07:07:35;;;;;;;10.38;7.13;;;1178.30;1100.80;;;;;;5049828;28;20024;-60
2023/07/29 07:10:01;;;;;;;10.57;9.27;;;1203.80;1075.20;;;;;;5049977;28;20406;-59
2023/07/29 07:12:27;;;;;;;10.40;9.27;;;1204.10;1049.60;;;;;;5049952;28;20075;-60
2023/07/29 07:14:53;;;;;;;10.52;9.73;;;1229.50;1075.20;;;;;;5049913;28;20029;-66
2023/07/29 07:17:19;;;;;;;10.60;9.90;;;1254.60;1075.20;;;;;;5050552;28;20072;-64
2023/07/29 07:19:46;;;;;;;10.82;10.02;;;1280.40;1024.00;;;;;;5049562;28;20032;-62
2023/07/29 07:22:12;;;;;;;11.38;10.32;;;1280.00;1024.00;;;;;;5047314;28;20365;-60
2023/07/29 07:24:37;;;;;;;11.50;10.48;;;1280.90;998.40;;;;;;5049675;28;20040;-62
2023/07/29 07:27:03;;;;;;;11.45;10.55;;;1306.50;947.20;;;;;;5049736;28;20037;-62
2023/07/29 07:29:30;;;;;;;11.48;10.32;;;1306.50;921.60;;;;;;5049648;28;20731;-61
2023/07/29 07:31:56;;;;;;;13.35;12.13;;;1331.40;947.20;;;;;;5049359;28;20391;-61
2023/07/29 07:34:22;;;;;;;12.02;10.93;;;1305.90;947.20;;;;;;5049634;28;20020;-60
2023/07/29 07:36:49;;;;;;;9.77;8.93;;;1280.90;972.80;;;;;;5049376;28;20108;-61
2023/07/29 07:39:15;;;;;;;12.20;11.23;;;1254.60;1049.60;;;;;;5049111;28;20032;-60
2023/07/29 07:41:41;;;;;;;12.27;11.38;;;1280.90;947.20;;;;;;5049459;28;20021;-60
2023/07/29 07:44:07;;;;;;;12.85;11.98;;;1305.90;947.20;;;;;;5048801;28;20040;-60
2023/07/29 07:46:33;;;;;;;11.38;10.38;;;1306.20;947.20;;;;;;5049811;28;20047;-60
2023/07/29 07:48:58;;;;;;;12.20;11.40;;;1305.70;947.20;;;;;;5049604;28;20049;-61
2023/07/29 07:51:24;;;;;;;12.75;11.95;;;1280.90;972.80;;;;;;5048830;28;20048;-61
2023/07/29 07:53:50;;;;;;;13.32;12.27;;;1280.20;972.80;;;;;;5049056;28;20037;-61
2023/07/29 07:56:16;;;;;;;12.35;11.35;;;1280.70;972.80;;;;;;5049202;28;20035;-61
2023/07/29 07:58:41;;;;;;;12.00;11.10;;;1280.40;972.80;;;;;;5049202;28;20132;-61
2023/07/29 08:01:08;;;;;;;11.98;11.18;;;1305.60;947.20;;;;;;5049183;28;20017;-60
2023/07/29 08:03:35;;;;;;;13.05;11.93;;;1331.40;947.20;;;;;;5048874;28;20402;-60
2023/07/29 08:06:01;;;;;;;14.45;13.45;;;1331.60;921.60;;;;;;5049014;28;20025;-60
2023/07/29 08:08:27;;;;;;;14.05;13.05;;;1305.90;921.60;;;;;;5049079;28;20086;-60
2023/07/29 08:10:59;;;;;;;12.23;11.25;;;1305.60;947.20;;;;;;5049285;28;20024;-61
2023/07/29 08:13:25;;;;;;;13.25;11.85;;;1280.40;972.80;;;;;;5048729;28;20083;-67
2023/07/29 08:15:53;;;;;;;11.50;10.65;;;1203.40;1024.00;;;;;;5049068;28;20024;-61
2023/07/29 08:18:19;;;;;;;12.20;11.40;;;1177.70;1024.00;;;;;;5049363;28;20032;-67
2023/07/29 08:20:57;;;;;;;12.63;11.65;;;1178.50;1024.00;;;;;;5049358;28;20048;-61
2023/07/29 08:23:24;;;;;;;10.98;10.02;;;1203.30;1024.00;;;;;;5048455;28;20051;-62
2023/07/29 08:26:01;;;;;;;14.23;12.98;;;1178.20;1024.00;;;;;;5049511;28;20109;-67
2023/07/29 08:28:38;;;;;;;11.45;10.35;;;1177.60;1049.60;;;;;;5048707;28;20546;-60
2023/07/29 08:31:04;;;;;;;10.68;9.70;;;1126.60;1100.80;;;;;;5048629;28;20479;-61
2023/07/29 08:33:30;;;;;;;9.75;8.73;;;1075.80;1152.00;;;;;;5049936;28;20052;-60
2023/07/29 08:35:56;;;;;;;8.00;7.30;;;1024.90;1228.80;;;;;;5052612;28;20382;-61
2023/07/29 08:38:22;;;;;;;10.52;7.07;;;998.40;1305.60;;;;;;5052843;28;20044;-60
2023/07/29 08:41:00;;;;;;;7.82;7.10;;;948.10;1356.80;;;;;;5052727;28;20020;-66
2023/07/29 08:43:32;;;;;;;10.85;7.45;;;947.80;1382.40;;;;;;5052333;28;20040;-61
2023/07/29 08:45:59;;;;;;;7.60;6.82;;;922.30;1356.80;;;;;;5052754;28;20451;-60
2023/07/29 08:48:42;;;;;;;7.50;6.80;;;922.00;1382.40;;;;;;5052342;28;20040;-60
2023/07/29 08:51:09;;;;;;;7.63;6.93;;;896.60;1408.00;;;;;;5040025;28;20024;-60
2023/07/29 08:53:35;;;;;;;8.23;6.70;;;896.30;1408.00;;;;;;5052341;28;20041;-60
2023/07/29 08:56:02;;;;;;;8.55;7.05;;;896.40;1459.20;;;;;;5053033;28;20021;-59
2023/07/29 08:58:28;;;;;;;8.10;7.30;;;896.50;1484.80;;;;;;5052286;28;20025;-60
2023/07/29 09:00:54;;;;;;;9.57;7.95;;;896.40;1433.60;;;;;;5052291;28;20390;-60
2023/07/29 09:03:21;;;;;;;7.43;6.72;;;871.10;1484.80;;;;;;5039104;28;20029;-66
2023/07/29 09:05:47;;;;;;;7.88;6.75;;;871.10;1484.80;;;;;;5052564;28;20021;-60
2023/07/29 09:08:14;;;;;;;8.82;6.82;;;871.10;1484.80;;;;;;5052189;28;20044;-60
2023/07/29 09:10:39;;;;;;;8.93;6.72;;;871.10;1561.60;;;;;;5052724;28;20028;-59
2023/07/29 09:13:05;;;;;;;8.02;6.00;;;871.00;1536.00;;;;;;5051912;28;20463;-60
2023/07/29 09:15:33;;;;;;;8.50;6.40;;;871.10;1484.80;;;;;;5052229;28;20098;-62
2023/07/29 09:18:08;;;;;;;9.43;7.28;;;871.20;1536.00;;;;;;5052300;28;20737;-60
2023/07/29 09:20:34;;;;;;;8.00;6.57;;;871.10;1510.40;;;;;;5052112;28;20025;-60
2023/07/29 09:23:00;;;;;;;10.35;6.70;;;845.40;1561.60;;;;;;5052014;28;20025;-60
2023/07/29 09:25:27;;;;;;;8.98;7.22;;;845.30;1561.60;;;;;;5052032;28;20099;-59
2023/07/29 09:27:59;;;;;;;8.00;6.47;;;845.30;1561.60;;;;;;5052153;28;20378;-60
2023/07/29 09:30:24;;;;;;;9.35;6.57;;;845.50;1536.00;;;;;;5051706;28;20029;-60
2023/07/29 09:32:58;;;;;;;7.53;6.50;;;845.60;1536.00;;;;;;5052095;28;20171;-61
2023/07/29 09:35:32;;;;;;;8.75;6.57;;;845.60;1536.00;;;;;;5051800;28;20027;-60
2023/07/29 09:37:58;;;;;;;9.45;7.05;;;845.70;1536.00;;;;;;5051461;28;20475;-60
2023/07/29 09:40:25;;;;;;;7.03;6.32;;;845.50;1561.60;;;;;;5051733;28;20025;-60
2023/07/29 09:42:52;;;;;;;8.73;6.90;;;845.70;1612.80;;;;;;5051724;28;20037;-60
2023/07/29 09:45:21;;;;;;;7.57;6.88;;;870.40;1536.00;;;;;;5050421;28;20028;-67
2023/07/29 09:47:47;;;;;;;8.77;7.55;;;845.70;1561.60;;;;;;5039065;28;20020;-60
2023/07/29 09:50:13;;;;;;;7.20;6.50;;;844.90;1612.80;;;;;;5051465;28;20060;-60
2023/07/29 09:52:39;;;;;;;7.30;6.60;;;844.80;1612.80;;;;;;5051477;28;20052;-60
2023/07/29 09:55:06;;;;;;;8.32;6.45;;;845.10;1638.40;;;;;;5051134;28;20029;-60
2023/07/29 09:57:32;;;;;;;10.55;7.20;;;845.40;1612.80;;;;;;5051452;28;20087;-60
2023/07/29 09:59:58;;;;;;;10.15;7.13;;;845.20;1587.20;;;;;;5051082;28;20021;-61
2023/07/29 10:02:25;;;;;;;8.18;6.63;;;845.00;1587.20;;;;;;5051223;28;20502;-63
2023/07/29 10:04:52;;;;;;;7.57;6.75;;;845.20;1612.80;;;;;;5051204;28;20120;-61
2023/07/29 10:07:18;;;;;;;10.20;6.38;;;845.20;1587.20;;;;;;5051292;28;20025;-67
2023/07/29 10:09:46;;;;;;;9.13;6.97;;;844.90;1587.20;;;;;;5050905;28;20027;-67
2023/07/29 10:12:13;;;;;;;10.43;6.47;;;845.10;1587.20;;;;;;5051380;28;20056;-65
2023/07/29 10:14:39;;;;;;;9.02;7.07;;;844.90;1587.20;;;;;;5050293;28;20033;-66
2023/07/29 10:17:05;;;;;;;7.50;6.43;;;844.80;1612.80;;;;;;5051251;28;20027;-60
2023/07/29 10:19:31;;;;;;;7.75;6.63;;;845.30;1612.80;;;;;;5051585;28;20052;-59
2023/07/29 10:22:03;;;;;;;9.85;6.85;;;845.20;1587.20;;;;;;5051121;28;20047;-60
2023/07/29 10:24:33;;;;;;;7.97;7.18;;;845.10;1561.60;;;;;;5051275;28;20029;-59
2023/07/29 10:27:00;;;;;;;8.27;6.43;;;844.90;1612.80;;;;;;5051223;28;20024;-63
2023/07/29 10:29:32;;;;;;;7.18;6.45;;;844.90;1587.20;;;;;;5050761;28;20052;-60
2023/07/29 10:32:02;;;;;;;7.87;6.17;;;845.00;1612.80;;;;;;5051153;28;20029;-60
2023/07/29 10:34:29;;;;;;;10.75;6.40;;;845.20;1587.20;;;;;;5049891;28;20086;-61
2023/07/29 10:36:55;;;;;;;7.78;6.05;;;845.30;1587.20;;;;;;5049624;28;20437;-60
2023/07/29 10:39:21;;;;;;;10.18;6.32;;;845.10;1561.60;;;;;;5049168;28;20058;-60
2023/07/29 10:41:56;;;;;;;8.23;6.90;;;820.00;1587.20;;;;;;5048913;28;20029;-62
2023/07/29 10:44:43;;;;;;;6.80;6.20;;;819.80;1561.60;;;;;;5050083;28;20055;-60
2023/07/29 10:47:16;;;;;;;9.85;6.95;;;820.00;1561.60;;;;;;5045639;28;20060;-60
2023/07/29 10:49:46;;;;;;;;;;;819.60;1587.20;;;;;;5050764;28;20116;-59
2023/07/29 10:52:16;;;;;;;7.63;6.22;;;819.60;1587.20;;;;;;5049675;28;20294;-68
2023/07/29 10:54:47;;;;;;;8.38;7.13;;;820.00;1561.60;;;;;;5050283;28;20033;-61
2023/07/29 10:57:15;;;;;;;9.10;7.05;;;820.00;1587.20;;;;;;5049332;28;20013;-60
2023/07/29 10:59:45;;;;;;;7.22;6.40;;;820.10;1587.20;;;;;;5050501;28;20025;-60
2023/07/29 11:02:19;;;;;;;8.50;6.60;;;820.10;1612.80;;;;;;5049844;28;20025;-60
2023/07/29 11:04:50;;;;;;;9.95;7.22;;;819.90;1612.80;;;;;;5049701;28;20558;-62
2023/07/29 11:07:16;;;;;;;7.07;6.15;;;820.00;1612.80;;;;;;5049452;28;20013;-60
2023/07/29 11:10:04;;;;;;;7.82;6.43;;;820.10;1612.80;;;;;;5050167;28;20557;-59
2023/07/29 11:12:45;;;;;;;8.20;6.18;;;844.80;1587.20;;;;;;5048411;28;20025;-59
2023/07/29 11:15:14;;;;;;;10.35;6.95;;;819.60;1587.20;;;;;;5048421;28;20025;-60
2023/07/29 11:17:48;;;;;;;8.02;7.03;;;794.40;1587.20;;;;;;5049194;28;20148;-67
2023/07/29 11:20:15;;;;;;;8.02;6.00;;;794.50;1612.80;;;;;;5047586;28;20070;-60
2023/07/29 11:22:41;;;;;;;10.00;6.65;;;794.50;1612.80;;;;;;5049631;28;20094;-60
2023/07/29 11:25:10;;;;;;;9.13;7.60;;;819.40;1612.80;;;;;;5046565;28;20036;-60
2023/07/29 11:27:36;;;;;;;7.47;6.15;;;819.60;1612.80;;;;;;5049367;28;20017;-60
2023/07/29 11:30:05;;;;;;;8.18;5.63;;;819.60;1612.80;;;;;;5047286;28;20045;-60
2023/07/29 11:32:32;;;;;;;12.40;6.93;;;819.80;1638.40;;;;;;5049854;28;20379;-66
2023/07/29 11:35:02;;;;;;;7.65;6.95;;;819.80;1612.80;;;;;;5049073;28;20402;-64
2023/07/29 11:37:27;;;;;;;11.45;6.15;;;820.00;1612.80;;;;;;5048973;28;20079;-66
2023/07/29 11:39:53;;;;;;;9.23;5.75;;;820.00;1561.60;;;;;;5049042;28;20025;-65
2023/07/29 11:42:19;;;;;;;6.72;6.13;;;819.90;1638.40;;;;;;5049173;28;20029;-65
2023/07/29 11:44:45;;;;;;;7.43;6.20;;;819.50;1536.00;;;;;;5048568;28;20511;-63
2023/07/29 11:47:12;;;;;;;6.43;5.78;;;819.40;1561.60;;;;;;5048778;28;20056;-61
2023/07/29 11:49:39;;;;;;;8.80;6.47;;;819.50;1561.60;;;;;;5049466;28;20091;-61
2023/07/29 11:52:08;;;;;;;7.15;6.32;;;819.60;1587.20;;;;;;5049629;28;20032;-60
2023/07/29 11:54:35;;;;;;;8.23;6.50;;;819.60;1587.20;;;;;;5048174;28;20904;-60
2023/07/29 11:57:01;;;;;;;7.30;6.43;;;819.70;1536.00;;;;;;5048580;28;20086;-60
2023/07/29 11:59:28;;;;;;;6.75;6.15;;;844.80;1587.20;;;;;;5049227;28;20033;-60
2023/07/29 12:01:54;;;;;;;8.75;6.75;;;845.40;1587.20;;;;;;5049540;28;20738;-67
2023/07/29 12:04:20;;;;;;;7.15;6.47;;;845.30;1510.40;;;;;;5049133;28;20568;-60
2023/07/29 12:06:46;;;;;;;8.18;6.68;;;845.40;1612.80;;;;;;5049122;28;20079;-61
2023/07/29 12:09:13;;;;;;;7.40;6.60;;;845.70;1587.20;;;;;;5049231;28;20029;-60
2023/07/29 12:11:39;;;;;;;13.68;7.60;;;845.20;1587.20;;;;;;5048770;28;20426;-60
2023/07/29 12:14:08;;;;;;;7.97;7.15;;;844.80;1587.20;;;;;;5048752;28;20036;-65